createdAt,value
2022-12-14T00:01:35.489Z,16.35
2022-12-14T00:04:02.245Z,17.15
2022-12-14T00:06:31.459Z,18.35
2022-12-14T00:09:01.139Z,17.67
2022-12-14T00:11:28.703Z,17.42
2022-12-14T00:13:58.124Z,20.83
2022-12-14T00:16:26.903Z,20.83
2022-12-14T00:18:55.616Z,19.00
2022-12-14T00:21:22.765Z,19.95
2022-12-14T00:23:50.803Z,18.95
2022-12-14T00:26:29.300Z,20.05
2022-12-14T00:28:56.744Z,22.92
2022-12-14T00:31:24.742Z,20.23
2022-12-14T00:33:51.974Z,19.50
2022-12-14T00:36:20.256Z,21.00
2022-12-14T00:38:47.182Z,21.70
2022-12-14T00:41:14.035Z,17.83
2022-12-14T00:43:40.893Z,15.80
2022-12-14T00:46:08.292Z,15.80
2022-12-14T00:48:35.285Z,19.00
2022-12-14T00:51:02.439Z,15.27
2022-12-14T00:53:30.085Z,15.10
2022-12-14T00:55:56.999Z,16.15
2022-12-14T00:58:25.452Z,18.38
2022-12-14T01:01:00.990Z,17.05
2022-12-14T01:03:28.535Z,20.30
2022-12-14T01:05:55.619Z,14.63
2022-12-14T01:08:23.172Z,15.95
2022-12-14T01:10:50.241Z,17.92
2022-12-14T01:13:17.283Z,15.57
2022-12-14T01:15:44.086Z,15.75
2022-12-14T01:18:11.031Z,19.17
2022-12-14T01:20:37.823Z,15.35
2022-12-14T01:23:04.584Z,17.40
2022-12-14T01:25:31.423Z,16.23
2022-12-14T01:27:58.187Z,16.58
2022-12-14T01:30:25.079Z,15.63
2022-12-14T01:32:51.908Z,15.98
2022-12-14T01:35:18.696Z,17.58
2022-12-14T01:37:45.511Z,21.33
2022-12-14T01:40:16.388Z,16.40
2022-12-14T01:42:43.163Z,15.38
2022-12-14T01:45:22.129Z,15.15
2022-12-14T01:47:55.429Z,13.77
2022-12-14T01:50:37.955Z,11.90
2022-12-14T01:53:21.031Z,9.95
2022-12-14T01:55:52.128Z,12.20
2022-12-14T01:58:24.887Z,8.65
2022-12-14T02:00:58.406Z,10.95
2022-12-14T02:03:38.188Z,11.93
2022-12-14T02:06:12.807Z,11.15
2022-12-14T02:08:43.319Z,10.70
2022-12-14T02:11:10.357Z,9.77
2022-12-14T02:13:41.625Z,9.85
2022-12-14T02:16:08.947Z,13.57
2022-12-14T02:18:35.948Z,12.63
2022-12-14T02:21:48.233Z,10.60
2022-12-14T02:24:30.389Z,12.23
2022-12-14T02:27:16.362Z,13.48
2022-12-14T02:30:15.141Z,14.95
2022-12-14T02:33:00.494Z,10.40
2022-12-14T02:35:27.215Z,11.18
2022-12-14T02:38:18.584Z,12.30
2022-12-14T02:40:56.956Z,11.70
2022-12-14T02:43:26.918Z,12.45
2022-12-14T02:46:20.781Z,12.38
2022-12-14T02:49:04.146Z,12.65
2022-12-14T02:51:37.447Z,11.60
2022-12-14T02:54:13.456Z,13.45
2022-12-14T02:59:11.855Z,14.55
2022-12-14T03:01:39.986Z,12.02
2022-12-14T03:04:07.362Z,10.18
2022-12-14T03:06:34.217Z,14.80
2022-12-14T03:09:14.700Z,11.10
2022-12-14T03:11:56.319Z,10.73
2022-12-14T03:14:32.265Z,9.55
2022-12-14T03:17:10.340Z,9.90
2022-12-14T03:19:54.111Z,9.30
2022-12-14T03:22:29.831Z,11.00
2022-12-14T03:25:03.089Z,12.43
2022-12-14T03:27:34.032Z,10.13
2022-12-14T03:30:05.741Z,13.50
2022-12-14T03:32:35.637Z,11.07
2022-12-14T03:35:09.072Z,9.00
2022-12-14T03:37:48.776Z,13.85
2022-12-14T03:40:22.806Z,10.40
2022-12-14T03:43:17.054Z,10.70
2022-12-14T03:45:58.169Z,10.48
2022-12-14T03:48:31.521Z,14.55
2022-12-14T03:51:18.443Z,9.45
2022-12-14T03:54:07.626Z,10.90
2022-12-14T03:56:37.403Z,12.75
2022-12-14T03:59:22.446Z,11.35
2022-12-14T04:02:16.034Z,12.75
2022-12-14T04:05:03.149Z,11.65
2022-12-14T04:07:55.609Z,11.23
2022-12-14T04:10:48.503Z,11.55
2022-12-14T04:13:40.075Z,11.95
2022-12-14T04:16:30.301Z,14.95
2022-12-14T04:19:00.663Z,13.10
2022-12-14T04:22:12.131Z,12.98
2022-12-14T04:25:20.939Z,12.50
2022-12-14T04:27:53.136Z,10.90
2022-12-14T04:30:20.210Z,12.95
2022-12-14T04:33:21.885Z,14.40
2022-12-14T04:35:50.360Z,12.77
2022-12-14T04:38:22.391Z,11.63
2022-12-14T04:40:53.732Z,14.75
2022-12-14T04:43:24.809Z,14.48
2022-12-14T04:46:06.816Z,19.50
2022-12-14T04:48:45.400Z,19.83
2022-12-14T04:51:25.193Z,13.25
2022-12-14T04:53:58.481Z,17.40
2022-12-14T04:56:46.303Z,14.18
2022-12-14T04:59:13.581Z,12.35
2022-12-14T05:02:12.870Z,14.35
2022-12-14T05:04:56.595Z,16.70
2022-12-14T05:07:28.717Z,16.27
2022-12-14T05:09:59.043Z,18.00
2022-12-14T05:12:40.953Z,17.80
2022-12-14T05:15:18.620Z,12.98
2022-12-14T05:17:45.577Z,13.30
2022-12-14T05:20:18.654Z,13.73
2022-12-14T05:22:45.503Z,14.35
2022-12-14T05:25:12.278Z,15.90
2022-12-14T05:27:39.163Z,16.30
2022-12-14T05:30:07.094Z,12.52
2022-12-14T05:32:34.442Z,15.40
2022-12-14T05:35:02.493Z,12.68
2022-12-14T05:37:29.448Z,16.38
2022-12-14T05:39:56.231Z,14.57
2022-12-14T05:42:23.150Z,20.60
2022-12-14T05:44:49.923Z,13.70
2022-12-14T05:47:16.700Z,13.48
2022-12-14T05:49:43.513Z,17.13
2022-12-14T05:52:10.327Z,16.23
2022-12-14T05:54:37.179Z,17.98
2022-12-14T05:57:04.203Z,12.95
2022-12-14T05:59:30.936Z,14.85
2022-12-14T06:01:58.107Z,14.93
2022-12-14T06:04:25.456Z,13.85
2022-12-14T06:06:52.346Z,15.65
2022-12-14T06:09:19.376Z,14.48
2022-12-14T06:11:47.235Z,13.68
2022-12-14T06:14:14.654Z,15.55
2022-12-14T06:16:43.326Z,13.40
2022-12-14T06:19:11.133Z,15.50
2022-12-14T06:21:39.908Z,14.45
2022-12-14T06:24:07.489Z,13.25
2022-12-14T06:26:40.982Z,14.65
2022-12-14T06:29:16.035Z,16.25
2022-12-14T06:31:42.901Z,18.77
2022-12-14T06:34:10.726Z,17.83
2022-12-14T06:36:39.943Z,19.50
2022-12-14T06:39:12.515Z,16.73
2022-12-14T06:41:40.413Z,16.20
2022-12-14T06:44:10.791Z,17.65
2022-12-14T06:46:38.116Z,22.52
2022-12-14T06:49:06.087Z,17.73
2022-12-14T06:51:38.252Z,16.02
2022-12-14T06:54:05.034Z,18.70
2022-12-14T06:56:31.781Z,21.23
2022-12-14T06:58:58.595Z,17.08
2022-12-14T07:01:26.261Z,25.02
2022-12-14T07:03:55.174Z,21.35
2022-12-14T07:06:26.614Z,20.35
2022-12-14T07:08:55.653Z,18.90
2022-12-14T07:11:23.244Z,25.80
2022-12-14T07:13:50.136Z,22.35
2022-12-14T07:16:19.796Z,21.25
2022-12-14T07:18:47.148Z,23.30
2022-12-14T07:21:15.912Z,25.13
2022-12-14T07:23:44.939Z,20.52
2022-12-14T07:26:17.148Z,23.55
2022-12-14T07:28:44.674Z,23.58
2022-12-14T07:31:18.141Z,26.23
2022-12-14T07:33:45.625Z,23.67
2022-12-14T07:36:15.863Z,23.02
2022-12-14T07:38:44.866Z,23.63
2022-12-14T07:41:22.025Z,22.50
2022-12-14T07:43:50.375Z,23.65
2022-12-14T07:46:20.097Z,23.52
2022-12-14T07:48:49.440Z,23.02
2022-12-14T07:51:18.567Z,31.42
2022-12-14T07:53:45.984Z,40.97
2022-12-14T07:56:19.151Z,67.65
2022-12-14T07:58:46.013Z,39.95
2022-12-14T08:01:15.648Z,31.75
2022-12-14T08:03:47.079Z,38.15
2022-12-14T08:06:17.641Z,32.03
2022-12-14T08:08:44.628Z,30.55
2022-12-14T08:11:13.956Z,27.25
2022-12-14T08:13:43.201Z,27.00
2022-12-14T08:16:15.434Z,27.85
2022-12-14T08:18:43.201Z,25.40
2022-12-14T08:21:11.708Z,29.13
2022-12-14T08:23:41.546Z,24.42
2022-12-14T08:26:08.965Z,30.08
2022-12-14T08:28:36.801Z,26.85
2022-12-14T08:31:12.607Z,23.98
2022-12-14T08:33:40.869Z,22.23
2022-12-14T08:36:13.844Z,20.02
2022-12-14T08:38:41.551Z,24.05
2022-12-14T08:41:10.479Z,25.73
2022-12-14T08:43:37.708Z,29.17
2022-12-14T08:46:05.043Z,22.77
2022-12-14T08:48:31.918Z,26.52
2022-12-14T08:51:06.725Z,22.08
2022-12-14T08:53:34.448Z,22.15
2022-12-14T08:56:11.389Z,20.55
2022-12-14T08:58:39.317Z,20.92
2022-12-14T09:01:15.891Z,20.45
2022-12-14T09:03:47.180Z,19.27
2022-12-14T09:06:18.251Z,20.50
2022-12-14T09:08:47.081Z,22.38
2022-12-14T09:11:18.151Z,19.95
2022-12-14T09:13:45.643Z,20.80
2022-12-14T09:16:19.220Z,19.02
2022-12-14T09:18:47.433Z,18.55
2022-12-14T09:21:14.855Z,17.65
2022-12-14T09:23:42.194Z,17.92
2022-12-14T09:26:13.115Z,21.23
2022-12-14T09:28:41.434Z,18.52
2022-12-14T09:31:11.817Z,16.02
2022-12-14T09:33:38.826Z,16.40
2022-12-14T09:36:12.657Z,19.70
2022-12-14T09:38:43.121Z,16.48
2022-12-14T09:41:32.897Z,16.55
2022-12-14T09:44:23.827Z,18.67
2022-12-14T09:47:23.841Z,22.83
2022-12-14T09:50:02.603Z,18.98
2022-12-14T09:52:41.628Z,14.63
2022-12-14T09:55:33.142Z,17.00
2022-12-14T09:58:16.434Z,13.75
2022-12-14T10:01:24.597Z,11.82
2022-12-14T10:04:06.653Z,14.20
2022-12-14T10:07:02.322Z,15.20
2022-12-14T10:09:41.128Z,17.58
2022-12-14T10:12:34.104Z,13.98
2022-12-14T10:15:15.877Z,14.93
2022-12-14T10:17:51.589Z,10.73
2022-12-14T10:20:32.010Z,10.60
2022-12-14T10:23:02.158Z,17.65
2022-12-14T10:25:33.258Z,10.95
2022-12-14T10:28:12.681Z,10.02
2022-12-14T10:30:42.168Z,11.35
2022-12-14T10:33:30.629Z,10.73
2022-12-14T10:36:17.105Z,12.18
2022-12-14T10:41:51.779Z,13.95
2022-12-14T10:45:04.386Z,15.23
2022-12-14T10:47:47.744Z,17.02
2022-12-14T10:50:49.620Z,14.45
2022-12-14T10:53:23.470Z,17.13
2022-12-14T10:55:58.068Z,15.50
2022-12-14T10:58:24.833Z,14.40
2022-12-14T11:00:54.807Z,18.08
2022-12-14T11:03:22.181Z,21.70
2022-12-14T11:06:12.242Z,14.98
2022-12-14T11:08:48.271Z,13.98
2022-12-14T11:11:19.657Z,14.27
2022-12-14T11:13:54.641Z,17.75
2022-12-14T11:16:28.947Z,12.32
2022-12-14T11:19:02.988Z,18.40
2022-12-14T11:21:32.150Z,16.40
2022-12-14T11:23:58.936Z,15.35
2022-12-14T11:26:41.591Z,15.93
2022-12-14T11:29:37.923Z,15.32
2022-12-14T11:32:06.162Z,21.02
2022-12-14T11:34:41.494Z,14.25
2022-12-14T11:37:21.329Z,11.57
2022-12-14T11:40:01.949Z,6.47
2022-12-14T11:42:29.295Z,6.35
2022-12-14T11:45:27.279Z,7.30
2022-12-14T11:48:10.838Z,13.80
2022-12-14T11:50:37.615Z,11.68
2022-12-14T11:53:11.871Z,12.32
2022-12-14T11:55:45.443Z,10.68
2022-12-14T11:58:34.042Z,11.45
2022-12-14T12:01:16.595Z,13.13
2022-12-14T12:03:49.373Z,15.82
2022-12-14T12:06:25.178Z,11.90
2022-12-14T12:09:00.349Z,14.13
2022-12-14T12:11:30.637Z,14.45
2022-12-14T12:14:20.755Z,10.15
2022-12-14T12:16:48.165Z,12.27
2022-12-14T12:19:41.639Z,14.35
2022-12-14T12:22:11.896Z,12.80
2022-12-14T12:25:25.038Z,9.23
2022-12-14T12:28:11.321Z,8.68
2022-12-14T12:30:43.326Z,10.23
2022-12-14T12:33:26.088Z,9.27
2022-12-14T12:36:00.059Z,10.75
2022-12-14T12:38:35.833Z,7.93
2022-12-14T12:41:33.166Z,8.23
2022-12-14T12:44:39.686Z,11.38
2022-12-14T12:47:46.113Z,9.50
2022-12-14T12:50:21.527Z,9.13
2022-12-14T12:53:06.674Z,9.57
2022-12-14T12:55:38.199Z,15.27
2022-12-14T12:58:09.982Z,9.68
2022-12-14T13:00:38.761Z,11.25
2022-12-14T13:03:27.260Z,9.90
2022-12-14T13:06:01.461Z,14.95
2022-12-14T13:08:37.363Z,14.55
2022-12-14T13:11:28.307Z,9.57
2022-12-14T13:14:03.388Z,12.93
2022-12-14T13:16:38.062Z,13.30
2022-12-14T13:19:50.589Z,12.88
2022-12-14T13:22:25.033Z,13.15
2022-12-14T13:24:58.921Z,14.48
2022-12-14T13:28:17.588Z,16.23
2022-12-14T13:33:33.340Z,15.85
2022-12-14T13:36:45.739Z,15.15
2022-12-14T13:39:36.505Z,16.25
2022-12-14T13:42:38.171Z,16.45
2022-12-14T13:45:14.574Z,18.02
2022-12-14T13:47:54.643Z,20.42
2022-12-14T13:50:49.817Z,16.33
2022-12-14T13:53:34.480Z,18.58
2022-12-14T13:56:02.212Z,19.42
2022-12-14T13:58:48.794Z,23.17
2022-12-14T14:01:47.663Z,22.42
2022-12-14T14:04:18.526Z,21.67
2022-12-14T14:06:50.101Z,24.10
2022-12-14T14:09:28.885Z,26.08
2022-12-14T14:12:01.359Z,26.92
2022-12-14T14:14:37.320Z,25.48
2022-12-14T14:19:39.932Z,19.55
2022-12-14T14:22:26.059Z,17.95
2022-12-14T14:25:00.875Z,23.95
2022-12-14T14:27:48.034Z,23.45
2022-12-14T14:30:37.096Z,22.25
2022-12-14T14:33:48.964Z,23.75
2022-12-14T14:36:33.206Z,25.75
2022-12-14T14:39:31.230Z,19.58
2022-12-14T14:41:54.486Z,34.50
2022-12-14T14:44:40.569Z,37.70
2022-12-14T14:47:24.609Z,25.83
2022-12-14T14:49:57.618Z,29.95
2022-12-14T14:52:39.423Z,26.83
2022-12-14T14:55:53.208Z,31.38
2022-12-14T14:58:23.815Z,27.83
2022-12-14T15:00:53.627Z,30.65
2022-12-14T15:03:27.039Z,25.95
2022-12-14T15:05:54.337Z,25.48
2022-12-14T15:08:26.921Z,34.00
2022-12-14T15:10:55.036Z,27.08
2022-12-14T15:13:29.744Z,31.88
2022-12-14T15:15:57.034Z,31.67
2022-12-14T15:18:31.979Z,34.30
2022-12-14T15:21:11.177Z,30.58
2022-12-14T15:23:49.279Z,44.22
2022-12-14T15:26:24.654Z,51.30
2022-12-14T15:28:54.726Z,63.88
2022-12-14T15:31:42.040Z,66.85
2022-12-14T15:34:19.518Z,72.00
2022-12-14T15:36:47.011Z,77.57
2022-12-14T15:39:37.173Z,88.53
2022-12-14T15:42:17.024Z,92.93
2022-12-14T15:44:55.571Z,96.60
2022-12-14T15:47:27.814Z,107.40
2022-12-14T15:50:00.521Z,131.50
2022-12-14T15:52:31.161Z,123.40
2022-12-14T15:54:59.491Z,146.20
2022-12-14T15:57:26.477Z,164.90
2022-12-14T15:59:57.672Z,191.73
2022-12-14T16:02:32.267Z,158.30
2022-12-14T16:05:03.308Z,83.43
2022-12-14T16:07:40.783Z,79.60
2022-12-14T16:10:20.826Z,56.67
2022-12-14T16:12:52.185Z,48.65
2022-12-14T16:15:21.034Z,50.95
2022-12-14T16:17:47.960Z,53.10
2022-12-14T16:20:16.073Z,42.17
2022-12-14T16:22:58.699Z,41.55
2022-12-14T16:25:25.651Z,39.97
2022-12-14T16:27:53.561Z,37.97
2022-12-14T16:30:33.230Z,39.90
2022-12-14T16:33:19.008Z,37.15
2022-12-14T16:35:47.887Z,35.13
2022-12-14T16:38:17.065Z,42.40
2022-12-14T16:40:55.430Z,35.05
2022-12-14T16:43:31.750Z,38.85
2022-12-14T16:46:04.686Z,42.50
2022-12-14T16:48:33.518Z,46.55
2022-12-14T16:51:18.642Z,47.17
2022-12-14T16:53:51.511Z,42.45
2022-12-14T16:56:32.186Z,46.83
2022-12-14T16:59:07.090Z,49.72
2022-12-14T17:01:45.274Z,43.45
2022-12-14T17:04:14.507Z,42.75
2022-12-14T17:06:56.587Z,38.90
2022-12-14T17:09:28.320Z,45.13
2022-12-14T17:11:58.962Z,38.33
2022-12-14T17:14:27.129Z,41.67
2022-12-14T17:17:01.175Z,38.05
2022-12-14T17:19:37.956Z,40.33
2022-12-14T17:22:13.327Z,36.72
2022-12-14T17:24:40.265Z,42.70
2022-12-14T17:27:07.190Z,82.40
2022-12-14T17:29:34.143Z,73.90
2022-12-14T17:32:02.828Z,95.40
2022-12-14T17:34:30.411Z,70.90
2022-12-14T17:36:57.463Z,64.38
2022-12-14T17:39:25.013Z,60.85
2022-12-14T17:41:52.332Z,47.60
2022-12-14T17:44:20.650Z,53.65
2022-12-14T17:46:49.889Z,51.28
2022-12-14T17:49:33.921Z,49.08
2022-12-14T17:52:04.349Z,38.97
2022-12-14T17:54:32.284Z,35.85
2022-12-14T17:56:59.950Z,39.17
2022-12-14T17:59:26.792Z,39.20
2022-12-14T18:01:53.914Z,44.80
2022-12-14T18:04:21.041Z,46.80
2022-12-14T18:06:47.934Z,32.58
2022-12-14T18:09:16.155Z,46.10
2022-12-14T18:12:14.042Z,49.15
2022-12-14T18:14:29.963Z,47.15
2022-12-14T18:17:01.001Z,42.15
2022-12-14T18:19:29.863Z,42.70
2022-12-14T18:21:56.744Z,45.25
2022-12-14T18:24:26.111Z,43.75
2022-12-14T18:26:53.276Z,41.90
2022-12-14T18:29:20.415Z,40.45
2022-12-14T18:31:49.702Z,42.13
2022-12-14T18:34:16.936Z,45.58
2022-12-14T18:36:44.133Z,41.97
2022-12-14T18:39:11.042Z,44.00
2022-12-14T18:41:37.917Z,41.40
2022-12-14T18:44:05.017Z,46.85
2022-12-14T18:46:31.967Z,43.67
2022-12-14T18:48:58.850Z,41.90
2022-12-14T18:51:26.939Z,38.22
2022-12-14T18:53:55.503Z,35.53
2022-12-14T18:56:24.084Z,38.47
2022-12-14T18:58:52.050Z,41.15
2022-12-14T19:01:24.268Z,40.40
2022-12-14T19:03:51.795Z,41.22
2022-12-14T19:09:11.992Z,44.25
2022-12-14T19:11:41.711Z,42.33
2022-12-14T19:14:08.975Z,44.92
2022-12-14T19:16:35.978Z,47.33
2022-12-14T19:19:04.486Z,41.75
2022-12-14T19:21:31.572Z,45.72
2022-12-14T19:23:59.935Z,44.95
2022-12-14T19:26:28.463Z,48.92
2022-12-14T19:28:55.500Z,51.67
2022-12-14T19:31:22.753Z,51.63
2022-12-14T19:33:50.051Z,59.05
2022-12-14T19:36:16.988Z,56.10
2022-12-14T19:38:44.964Z,52.35
2022-12-14T19:41:20.075Z,53.55
2022-12-14T19:43:47.354Z,40.97
2022-12-14T19:46:16.388Z,52.17
2022-12-14T19:48:43.840Z,50.35
2022-12-14T19:51:12.711Z,52.38
2022-12-14T19:53:41.001Z,56.65
2022-12-14T19:56:08.472Z,47.80
2022-12-14T19:58:36.092Z,55.58
2022-12-14T20:01:11.975Z,54.92
2022-12-14T20:06:07.280Z,51.05
2022-12-14T20:08:35.105Z,49.95
2022-12-14T20:11:09.975Z,45.85
2022-12-14T20:13:37.601Z,49.58
2022-12-14T20:16:04.807Z,50.35
2022-12-14T20:18:32.351Z,49.67
2022-12-14T20:21:07.486Z,56.17
2022-12-14T20:23:36.080Z,50.87
2022-12-14T20:26:06.449Z,51.45
2022-12-14T20:28:33.315Z,47.30
2022-12-14T20:31:01.353Z,49.90
2022-12-14T20:33:30.892Z,47.80
2022-12-14T20:35:58.520Z,48.97
2022-12-14T20:38:25.732Z,46.83
2022-12-14T20:40:52.696Z,48.78
2022-12-14T20:43:20.067Z,45.90
2022-12-14T20:45:47.008Z,53.15
2022-12-14T20:48:13.962Z,50.53
2022-12-14T20:50:42.994Z,51.75
2022-12-14T20:53:09.771Z,46.90
2022-12-14T20:55:36.812Z,47.78
2022-12-14T20:58:03.670Z,50.80
2022-12-14T21:00:30.725Z,45.90
2022-12-14T21:02:57.715Z,48.78
2022-12-14T21:05:25.171Z,48.13
2022-12-14T21:07:52.106Z,49.72
2022-12-14T21:10:19.015Z,43.92
2022-12-14T21:12:48.521Z,43.17
2022-12-14T21:15:15.499Z,47.38
2022-12-14T21:17:42.259Z,52.38
2022-12-14T21:20:11.404Z,48.70
2022-12-14T21:22:38.594Z,45.13
2022-12-14T21:25:07.088Z,49.10
2022-12-14T21:27:38.471Z,50.50
2022-12-14T21:30:10.042Z,51.10
2022-12-14T21:32:38.297Z,48.90
2022-12-14T21:35:05.399Z,46.30
2022-12-14T21:37:32.211Z,48.28
2022-12-14T21:39:58.967Z,43.03
2022-12-14T21:42:26.437Z,49.30
2022-12-14T21:44:54.427Z,47.45
2022-12-14T21:47:25.873Z,41.28
2022-12-14T21:49:52.940Z,52.42
2022-12-14T21:52:23.853Z,43.05
2022-12-14T21:54:50.670Z,48.15
2022-12-14T21:57:39.453Z,47.45
2022-12-14T22:00:08.744Z,48.97
2022-12-14T22:02:35.574Z,46.00
2022-12-14T22:05:02.536Z,47.95
2022-12-14T22:07:32.393Z,47.63
2022-12-14T22:09:59.212Z,49.45
2022-12-14T22:12:26.144Z,43.22
2022-12-14T22:14:53.114Z,50.65
2022-12-14T22:17:19.949Z,50.17
2022-12-14T22:19:46.831Z,64.53
2022-12-14T22:22:15.332Z,47.20
2022-12-14T22:24:42.857Z,48.50
2022-12-14T22:27:11.394Z,44.08
2022-12-14T22:29:38.193Z,46.88
2022-12-14T22:32:05.388Z,44.08
2022-12-14T22:34:32.283Z,43.78
2022-12-14T22:36:59.124Z,44.75
2022-12-14T22:39:25.839Z,44.45
2022-12-14T22:41:52.731Z,43.13
2022-12-14T22:44:19.487Z,47.60
2022-12-14T22:46:46.344Z,43.53
2022-12-14T22:49:18.346Z,40.90
2022-12-14T22:51:45.559Z,45.60
2022-12-14T22:54:24.792Z,48.25
2022-12-14T22:57:06.230Z,36.53
2022-12-14T22:59:51.516Z,38.80
2022-12-14T23:02:18.432Z,34.20
2022-12-14T23:04:45.416Z,28.05
2022-12-14T23:07:17.136Z,36.85
2022-12-14T23:10:02.412Z,38.28
2022-12-14T23:12:48.109Z,34.90
2022-12-14T23:15:33.579Z,36.25
2022-12-14T23:18:23.992Z,34.08
2022-12-14T23:21:09.879Z,34.08
2022-12-14T23:24:00.127Z,32.75
2022-12-14T23:26:45.706Z,34.00
2022-12-14T23:29:31.315Z,34.07
2022-12-14T23:32:16.699Z,35.07
2022-12-14T23:35:02.241Z,34.75
2022-12-14T23:37:47.951Z,31.30
2022-12-14T23:40:33.463Z,33.80
2022-12-14T23:43:27.201Z,32.93
2022-12-14T23:46:13.022Z,35.10
2022-12-14T23:48:58.470Z,36.33
2022-12-14T23:51:44.043Z,31.48
2022-12-14T23:54:29.645Z,31.70
2022-12-14T23:57:15.185Z,29.13
